createdAt,value
2022-08-26T00:00:08.424Z,1012.93
2022-08-26T00:05:08.161Z,1012.89
2022-08-26T00:10:08.202Z,1012.81
2022-08-26T00:15:08.897Z,1012.77
2022-08-26T00:20:08.657Z,1012.87
2022-08-26T00:25:08.381Z,1012.85
2022-08-26T00:30:07.766Z,1012.87
2022-08-26T00:35:08.457Z,1012.89
2022-08-26T00:40:08.152Z,1012.82
2022-08-26T00:45:11.597Z,1013.0
2022-08-26T00:50:08.520Z,1013.05
2022-08-26T00:55:08.416Z,1012.95
2022-08-26T01:00:08.079Z,1012.97
2022-08-26T01:05:08.110Z,1012.98
2022-08-26T01:10:07.815Z,1013.06
2022-08-26T01:15:08.486Z,1013.15
2022-08-26T01:20:07.752Z,1013.06
2022-08-26T01:25:08.494Z,1013.14
2022-08-26T01:30:08.220Z,1013.2
2022-08-26T01:35:07.902Z,1013.06
2022-08-26T01:40:08.684Z,1013.16
2022-08-26T01:45:08.423Z,1013.16
2022-08-26T01:50:08.094Z,1013.16
2022-08-26T01:55:07.818Z,1013.16
2022-08-26T02:00:18.636Z,1013.18
2022-08-26T02:05:08.358Z,1013.28
2022-08-26T02:10:08.028Z,1013.28
2022-08-26T02:15:08.204Z,1013.32
2022-08-26T02:20:07.819Z,1013.25
2022-08-26T02:25:08.117Z,1013.24
2022-08-26T02:30:08.142Z,1013.27
2022-08-26T02:35:07.840Z,1013.29
2022-08-26T02:40:08.589Z,1013.32
2022-08-26T02:45:08.314Z,1013.29
2022-08-26T02:50:08.134Z,1013.33
2022-08-26T02:55:07.842Z,1013.32
2022-08-26T03:00:08.536Z,1013.28
2022-08-26T03:05:08.221Z,1013.27
2022-08-26T03:10:08.647Z,1013.28
2022-08-26T03:15:16.035Z,1013.22
2022-08-26T03:20:07.758Z,1013.17
2022-08-26T03:25:08.487Z,1013.19
2022-08-26T03:30:08.575Z,1013.26
2022-08-26T03:35:08.529Z,1013.26
2022-08-26T03:40:08.330Z,1013.26
2022-08-26T03:45:08.284Z,1013.23
2022-08-26T03:50:09.408Z,1013.17
2022-08-26T03:55:08.435Z,1013.17
2022-08-26T04:00:08.121Z,1013.11
2022-08-26T04:05:02.474Z,1013.19
2022-08-26T04:10:02.511Z,1013.23
2022-08-26T04:15:04.144Z,1013.28
2022-08-26T04:20:02.963Z,1013.48
2022-08-26T04:25:01.935Z,1013.48
2022-08-26T04:30:03.173Z,1013.53
2022-08-26T04:35:02.617Z,1013.59
2022-08-26T04:40:03.213Z,1013.52
2022-08-26T04:45:05.880Z,1013.58
2022-08-26T04:50:02.214Z,1013.66
2022-08-26T04:55:02.722Z,1013.62
2022-08-26T05:00:03.018Z,1013.69
2022-08-26T05:05:02.924Z,1013.62
2022-08-26T05:10:02.611Z,1013.75
2022-08-26T05:15:02.615Z,1013.77
2022-08-26T05:20:02.152Z,1013.84
2022-08-26T05:25:02.249Z,1013.73
2022-08-26T05:30:03.265Z,1013.79
2022-08-26T05:35:02.069Z,1013.8
2022-08-26T05:40:03.349Z,1013.79
2022-08-26T05:45:03.126Z,1013.77
2022-08-26T05:50:02.265Z,1013.85
2022-08-26T05:55:02.794Z,1013.89
2022-08-26T06:00:02.791Z,1013.99
2022-08-26T06:05:02.872Z,1013.96
2022-08-26T06:10:30.498Z,1013.95
2022-08-26T06:15:02.549Z,1013.96
2022-08-26T06:20:02.220Z,1013.99
2022-08-26T06:25:02.463Z,1014.02
2022-08-26T06:30:03.109Z,1014.1
2022-08-26T06:35:03.012Z,1014.09
2022-08-26T06:40:02.483Z,1014.18
2022-08-26T06:45:02.735Z,1014.16
2022-08-26T06:50:02.377Z,1014.27
2022-08-26T06:55:02.602Z,1014.25
2022-08-26T07:00:02.835Z,1014.29
2022-08-26T07:05:01.727Z,1014.23
2022-08-26T07:10:03.088Z,1014.34
2022-08-26T07:15:02.518Z,1014.31
2022-08-26T07:20:02.819Z,1014.33
2022-08-26T07:25:03.080Z,1014.23
2022-08-26T07:30:02.716Z,1014.36
2022-08-26T07:35:02.816Z,1014.33
2022-08-26T07:40:02.872Z,1014.5
2022-08-26T07:45:03.290Z,1014.52
2022-08-26T07:50:02.938Z,1014.58
2022-08-26T07:55:02.849Z,1014.66
2022-08-26T08:00:02.889Z,1014.63
2022-08-26T08:05:03.258Z,1014.71
2022-08-26T08:10:05.587Z,1014.67
2022-08-26T08:15:02.314Z,1014.73
2022-08-26T08:20:03.034Z,1014.72
2022-08-26T08:25:02.982Z,1014.75
2022-08-26T08:30:02.509Z,1014.77
2022-08-26T08:35:02.844Z,1014.82
2022-08-26T08:40:02.880Z,1014.75
2022-08-26T08:45:09.520Z,1014.85
2022-08-26T08:50:03.657Z,1014.87
2022-08-26T08:55:02.532Z,1014.87
2022-08-26T09:00:02.646Z,1014.85
2022-08-26T09:05:02.641Z,1014.79
2022-08-26T09:10:02.970Z,1014.86
2022-08-26T09:15:02.046Z,1014.9
2022-08-26T09:20:02.450Z,1014.92
2022-08-26T09:25:02.594Z,1014.99
2022-08-26T09:30:03.141Z,1014.97
2022-08-26T09:35:02.168Z,1014.99
2022-08-26T09:40:02.534Z,1014.88
2022-08-26T09:45:02.489Z,1014.9
2022-08-26T09:50:02.952Z,1014.96
2022-08-26T09:55:05.787Z,1015.03
2022-08-26T10:00:03.144Z,1014.96
2022-08-26T10:05:09.001Z,1014.95
2022-08-26T10:10:03.115Z,1014.83
2022-08-26T10:15:02.354Z,1014.89
2022-08-26T10:20:02.942Z,1014.9
2022-08-26T10:25:02.778Z,1014.93
2022-08-26T10:30:02.927Z,1014.81
2022-08-26T10:35:03.275Z,1014.86
2022-08-26T10:40:02.546Z,1014.8
2022-08-26T10:45:03.130Z,1014.79
2022-08-26T10:50:03.659Z,1014.85
2022-08-26T10:55:09.320Z,1014.83
2022-08-26T11:00:02.749Z,1014.8
2022-08-26T11:05:02.424Z,1014.89
2022-08-26T11:10:02.538Z,1014.87
2022-08-26T11:15:02.357Z,1014.91
2022-08-26T11:20:08.944Z,1014.91
2022-08-26T11:25:02.889Z,1014.91
2022-08-26T11:30:02.958Z,1014.87
2022-08-26T11:35:01.846Z,1014.87
2022-08-26T11:40:03.166Z,1014.89
2022-08-26T11:45:05.413Z,1014.85
2022-08-26T11:50:02.891Z,1014.91
2022-08-26T11:55:03.027Z,1014.81
2022-08-26T12:00:01.912Z,1014.73
2022-08-26T12:05:03.306Z,1014.73
2022-08-26T12:10:02.476Z,1014.67
2022-08-26T12:15:02.942Z,1014.7
2022-08-26T12:20:02.537Z,1014.69
2022-08-26T12:25:02.728Z,1014.65
2022-08-26T12:30:02.985Z,1014.78
2022-08-26T12:35:08.114Z,1014.83
2022-08-26T12:40:02.424Z,1014.72
2022-08-26T12:45:02.404Z,1014.81
2022-08-26T12:50:12.445Z,1014.81
2022-08-26T12:55:02.593Z,1014.81
2022-08-26T13:00:03.067Z,1014.79
2022-08-26T13:05:02.432Z,1014.86
2022-08-26T13:10:02.859Z,1014.81
2022-08-26T13:15:03.317Z,1014.81
2022-08-26T13:20:04.106Z,1014.79
2022-08-26T13:25:02.689Z,1014.81
2022-08-26T13:30:02.682Z,1014.76
2022-08-26T13:35:05.954Z,1014.78
2022-08-26T13:40:02.490Z,1014.79
2022-08-26T13:45:02.929Z,1014.77
2022-08-26T13:50:03.286Z,1014.8
2022-08-26T13:55:02.457Z,1014.89
2022-08-26T14:00:02.514Z,1014.81
2022-08-26T14:05:02.663Z,1014.79
2022-08-26T14:10:02.964Z,1014.89
2022-08-26T14:15:02.222Z,1014.89
2022-08-26T14:20:02.551Z,1014.88
2022-08-26T14:25:02.660Z,1014.82
2022-08-26T14:30:02.987Z,1014.87
2022-08-26T14:35:02.019Z,1014.79
2022-08-26T14:40:02.815Z,1014.94
2022-08-26T14:45:03.009Z,1014.79
2022-08-26T14:50:02.603Z,1014.91
2022-08-26T14:55:02.626Z,1014.94
2022-08-26T15:00:02.634Z,1014.99
2022-08-26T15:05:03.034Z,1014.87
2022-08-26T15:10:01.949Z,1014.88
2022-08-26T15:15:02.287Z,1014.84
2022-08-26T15:20:02.701Z,1014.82
2022-08-26T15:25:03.183Z,1014.82
2022-08-26T15:30:02.318Z,1014.74
2022-08-26T15:35:06.800Z,1014.8
2022-08-26T15:40:03.108Z,1014.72
2022-08-26T15:45:02.213Z,1014.64
2022-08-26T15:50:02.505Z,1014.51
2022-08-26T16:00:02.363Z,1014.66
2022-08-26T16:05:02.791Z,1014.64
2022-08-26T16:10:03.037Z,1014.65
2022-08-26T16:15:02.094Z,1014.63
2022-08-26T16:20:02.290Z,1014.7
2022-08-26T16:25:02.477Z,1014.68
2022-08-26T16:30:02.672Z,1014.61
2022-08-26T16:35:02.645Z,1014.61
2022-08-26T16:40:02.762Z,1014.72
2022-08-26T16:45:02.993Z,1014.65
2022-08-26T16:50:03.806Z,1014.7
2022-08-26T16:55:03.244Z,1014.66
2022-08-26T17:00:02.824Z,1014.81
2022-08-26T17:05:03.014Z,1014.88
2022-08-26T17:10:02.102Z,1014.84
2022-08-26T17:15:02.076Z,1014.8
2022-08-26T17:20:02.283Z,1014.89
2022-08-26T17:25:02.090Z,1014.92
2022-08-26T17:30:01.903Z,1014.97
2022-08-26T17:35:02.709Z,1015.09
2022-08-26T17:40:02.600Z,1015.06
2022-08-26T17:45:02.468Z,1015.06
2022-08-26T17:50:02.247Z,1015.24
2022-08-26T17:55:02.100Z,1015.26
2022-08-26T18:00:02.005Z,1015.28
2022-08-26T18:05:01.950Z,1015.31
2022-08-26T18:10:01.877Z,1015.33
2022-08-26T18:15:02.754Z,1015.29
2022-08-26T18:20:02.693Z,1015.32
2022-08-26T18:25:02.615Z,1015.31
2022-08-26T18:30:02.558Z,1015.35
2022-08-26T18:35:02.458Z,1015.28
2022-08-26T18:40:02.337Z,1015.36
2022-08-26T18:45:01.824Z,1015.39
2022-08-26T18:50:02.727Z,1015.39
2022-08-26T18:55:02.588Z,1015.35
2022-08-26T19:00:02.485Z,1015.53
2022-08-26T19:05:02.341Z,1015.59
2022-08-26T19:10:02.152Z,1015.59
2022-08-26T19:15:02.156Z,1015.62
2022-08-26T19:20:02.085Z,1015.68
2022-08-26T19:25:01.854Z,1015.64
2022-08-26T19:30:02.736Z,1015.68
2022-08-26T19:35:02.547Z,1015.78
2022-08-26T19:40:02.502Z,1015.77
2022-08-26T19:45:02.340Z,1015.74
2022-08-26T19:50:02.170Z,1015.72
2022-08-26T19:55:02.080Z,1015.73
2022-08-26T20:00:01.904Z,1015.7
2022-08-26T20:05:02.693Z,1015.72
2022-08-26T20:10:02.464Z,1015.67
2022-08-26T20:15:02.271Z,1015.67
2022-08-26T20:20:02.157Z,1015.71
2022-08-26T20:25:02.086Z,1015.76
2022-08-26T20:30:01.910Z,1015.74
2022-08-26T20:35:08.596Z,1015.75
2022-08-26T20:40:08.354Z,1015.76
2022-08-26T20:45:08.150Z,1015.92
2022-08-26T20:50:07.860Z,1015.87
2022-08-26T20:55:08.592Z,1015.8
2022-08-26T21:00:08.835Z,1015.94
2022-08-26T21:05:08.589Z,1016.01
2022-08-26T21:10:08.551Z,1016.0
2022-08-26T21:15:08.276Z,1015.96
2022-08-26T21:20:08.000Z,1016.05
2022-08-26T21:25:07.716Z,1015.95
2022-08-26T21:30:08.398Z,1015.86
2022-08-26T21:35:08.090Z,1015.96
2022-08-26T21:40:07.833Z,1015.96
2022-08-26T21:45:08.549Z,1016.03
2022-08-26T21:50:08.247Z,1016.06
2022-08-26T21:55:08.926Z,1016.06
2022-08-26T22:00:07.949Z,1016.01
2022-08-26T22:05:07.641Z,1016.05
2022-08-26T22:10:08.338Z,1016.08
2022-08-26T22:15:08.042Z,1016.08
2022-08-26T22:20:07.744Z,1016.15
2022-08-26T22:25:08.433Z,1016.09
2022-08-26T22:30:08.146Z,1016.17
2022-08-26T22:35:11.287Z,1016.17
2022-08-26T22:40:08.333Z,1016.23
2022-08-26T22:45:08.112Z,1016.14
2022-08-26T22:50:08.052Z,1016.1
2022-08-26T22:55:07.769Z,1016.16
2022-08-26T23:01:01.288Z,1015.98
2022-08-26T23:05:07.833Z,1016.05
2022-08-26T23:10:08.562Z,1016.04
2022-08-26T23:15:08.276Z,1016.0
2022-08-26T23:20:07.970Z,1016.05
2022-08-26T23:25:07.896Z,1016.07
2022-08-26T23:30:08.622Z,1016.07
2022-08-26T23:35:08.290Z,1016.05
2022-08-26T23:40:08.314Z,1016.03
2022-08-26T23:45:08.116Z,1016.0
2022-08-26T23:50:07.809Z,1015.95
2022-08-26T23:55:08.495Z,1016.0
